Hlavní strana
METAR-TAF:

METAR-TAF

Letiště :

Blackstone, Virginie, Spojené státy americké

zeměpisná šířka: 37-04-26N, zeměpisná délka: 077-57-09W, výška: 134 m

Aktuální stav počasí

Zpráva byla vytvořena před 27 minutami, v 10:15 UTC
Severoseverovýchodní vítr 5 kt
Teplota 4°C
Vlhkost vzduchu 75%
Tlak 1024 hPa
Viditelnost: 16.1 km
Polojasno ve výšce 1000 ft
Oblačno až skoro zataženo ve výšce 7000 ft
Oblačno až skoro zataženo ve výšce 12000 ft

METAR: KBKT 241015Z AUTO 02005KT 10SM SCT010 BKN070 BKN120 04/00 A3024 RMK AO1 T00360000

Čas: 05:42 (10:42 UTC)


TAF: chybějící

Stav a předpovědi počasí z více než 4 000 letišť (zprávy METAR a TAF).

Červené a žluté tečky na mapě představují dostupné meteorologické stanice.

Když kurzor umístíte na tečku, zobrazí se název stanice.

Pak kliknutím zobrazíte stav a předpověď počasí.

Chcete-li změnit mapu, kliknutím na zelené tlačítko se znaménkem +mapu přiblížíte, kliknutím na zelené tlačítko se znaménkem – mapu oddálíte a kliknutím na zelené šipky přejdete na sousední mapy.


METAR-TAF: